createdAt,value
2023-05-15T00:00:51.356Z,14.10
2023-05-15T00:06:11.652Z,14.03
2023-05-15T00:11:32.486Z,14.01
2023-05-15T00:16:53.268Z,13.99
2023-05-15T00:22:14.024Z,13.97
2023-05-15T00:27:34.498Z,13.93
2023-05-15T00:32:57.241Z,13.90
2023-05-15T00:38:18.184Z,13.87
2023-05-15T00:43:41.163Z,13.85
2023-05-15T00:49:05.229Z,13.82
2023-05-15T00:54:25.510Z,13.83
2023-05-15T00:59:47.997Z,13.83
2023-05-15T01:05:09.107Z,13.75
2023-05-15T01:10:29.746Z,13.51
2023-05-15T01:15:51.400Z,13.44
2023-05-15T01:21:44.410Z,13.43
2023-05-15T01:27:33.392Z,13.47
2023-05-15T01:33:05.335Z,13.39
2023-05-15T01:38:38.647Z,13.26
2023-05-15T01:44:25.942Z,13.32
2023-05-15T01:49:49.782Z,13.31
2023-05-15T01:55:11.118Z,13.18
2023-05-15T02:00:33.197Z,13.22
2023-05-15T02:05:56.533Z,13.19
2023-05-15T02:11:17.015Z,12.98
2023-05-15T02:16:40.238Z,12.91
2023-05-15T02:22:01.265Z,12.92
2023-05-15T02:27:27.646Z,12.92
2023-05-15T02:33:04.194Z,12.93
2023-05-15T02:38:30.924Z,12.94
2023-05-15T02:43:55.095Z,12.90
2023-05-15T02:49:15.561Z,12.71
2023-05-15T02:54:36.019Z,12.51
2023-05-15T02:59:57.506Z,12.40
2023-05-15T03:05:17.962Z,12.27
2023-05-15T03:10:39.753Z,12.22
2023-05-15T03:16:00.319Z,12.21
2023-05-15T03:21:20.863Z,12.18
2023-05-15T03:26:42.441Z,12.15
2023-05-15T03:32:03.215Z,12.12
2023-05-15T03:37:23.860Z,12.09
2023-05-15T03:42:45.641Z,12.05
2023-05-15T03:48:06.622Z,12.02
2023-05-15T03:53:27.240Z,12.00
2023-05-15T03:58:47.999Z,11.94
2023-05-15T04:04:08.468Z,11.86
2023-05-15T04:09:29.007Z,11.81
2023-05-15T04:14:49.730Z,11.79
2023-05-15T04:20:11.385Z,11.79
2023-05-15T04:25:32.370Z,11.78
2023-05-15T04:30:52.704Z,11.87
2023-05-15T04:36:13.139Z,11.99
2023-05-15T04:41:33.766Z,12.06
2023-05-15T04:46:54.334Z,12.15
2023-05-15T04:52:14.923Z,12.25
2023-05-15T04:57:35.842Z,12.40
2023-05-15T05:02:56.673Z,12.54
2023-05-15T05:08:17.174Z,12.74
2023-05-15T05:13:37.865Z,12.92
2023-05-15T05:18:58.894Z,13.12
2023-05-15T05:24:19.778Z,13.35
2023-05-15T05:29:40.243Z,13.58
2023-05-15T05:35:00.912Z,13.80
2023-05-15T05:40:21.491Z,14.06
2023-05-15T05:45:42.280Z,14.34
2023-05-15T05:51:03.341Z,14.63
2023-05-15T05:56:24.075Z,14.87
2023-05-15T06:01:44.590Z,15.14
2023-05-15T06:07:04.976Z,15.26
2023-05-15T06:12:25.549Z,15.10
2023-05-15T06:17:46.501Z,14.94
2023-05-15T06:23:07.272Z,14.97
2023-05-15T06:28:28.110Z,15.01
2023-05-15T06:33:48.694Z,15.05
2023-05-15T06:39:12.286Z,15.11
2023-05-15T06:44:33.442Z,15.21
2023-05-15T06:49:55.262Z,15.31
2023-05-15T06:55:15.946Z,15.43
2023-05-15T07:00:36.542Z,15.49
2023-05-15T07:05:57.312Z,15.54
2023-05-15T07:11:18.033Z,15.61
2023-05-15T07:16:38.671Z,15.85
2023-05-15T07:22:01.369Z,15.97
2023-05-15T07:27:23.673Z,16.11
2023-05-15T07:32:44.527Z,16.32
2023-05-15T07:38:05.479Z,16.42
2023-05-15T07:43:25.942Z,16.47
2023-05-15T07:48:46.874Z,16.48
2023-05-15T07:54:07.719Z,16.42
2023-05-15T07:59:28.579Z,16.49
2023-05-15T08:04:49.361Z,16.63
2023-05-15T08:10:10.756Z,16.47
2023-05-15T08:15:31.518Z,16.42
2023-05-15T08:20:52.368Z,16.32
2023-05-15T08:26:13.056Z,16.29
2023-05-15T08:31:33.932Z,16.31
2023-05-15T08:36:55.859Z,16.38
2023-05-15T08:42:24.291Z,16.42
2023-05-15T08:47:45.153Z,16.38
2023-05-15T08:53:06.102Z,16.23
2023-05-15T08:58:28.682Z,16.23
2023-05-15T09:03:49.231Z,16.32
2023-05-15T09:09:13.162Z,16.50
2023-05-15T09:14:33.951Z,16.89
2023-05-15T09:19:55.006Z,17.14
2023-05-15T09:25:32.230Z,17.67
2023-05-15T09:30:59.172Z,17.43
2023-05-15T09:36:22.057Z,17.00
2023-05-15T09:41:44.207Z,16.77
2023-05-15T09:47:05.726Z,16.77
2023-05-15T09:52:28.923Z,16.85
2023-05-15T09:58:13.366Z,17.00
2023-05-15T10:03:34.224Z,16.90
2023-05-15T10:08:55.381Z,17.48
2023-05-15T10:14:17.277Z,17.87
2023-05-15T10:19:50.464Z,18.33
2023-05-15T10:25:23.948Z,18.43
2023-05-15T10:30:46.134Z,17.93
2023-05-15T10:36:08.697Z,17.66
2023-05-15T10:41:30.648Z,17.96
2023-05-15T10:46:52.821Z,18.47
2023-05-15T10:52:13.458Z,18.60
2023-05-15T10:57:34.157Z,18.24
2023-05-15T11:02:57.139Z,17.84
2023-05-15T11:08:25.795Z,17.62
2023-05-15T11:14:05.236Z,17.07
2023-05-15T11:19:29.115Z,16.62
2023-05-15T11:24:54.088Z,17.10
2023-05-15T11:30:22.987Z,17.51
2023-05-15T11:35:47.176Z,17.64
2023-05-15T11:41:21.962Z,17.59
2023-05-15T11:46:44.075Z,17.40
2023-05-15T11:52:06.317Z,17.23
2023-05-15T11:57:27.075Z,17.23
2023-05-15T12:02:47.695Z,17.18
2023-05-15T12:08:13.286Z,17.16
2023-05-15T12:13:34.957Z,17.37
2023-05-15T12:18:59.914Z,17.17
2023-05-15T12:24:21.429Z,17.00
2023-05-15T12:29:42.920Z,16.83
2023-05-15T12:35:05.125Z,17.00
2023-05-15T12:40:27.331Z,17.25
2023-05-15T12:45:52.497Z,16.92
2023-05-15T12:51:17.294Z,17.13
2023-05-15T12:56:37.838Z,17.06
2023-05-15T13:01:58.422Z,16.70
2023-05-15T13:07:19.134Z,16.52
2023-05-15T13:12:43.287Z,16.32
2023-05-15T13:18:06.693Z,16.48
2023-05-15T13:23:27.000Z,16.59
2023-05-15T13:28:47.768Z,16.46
2023-05-15T13:34:08.216Z,16.30
2023-05-15T13:39:28.976Z,16.26
2023-05-15T13:44:49.654Z,16.37
2023-05-15T13:50:13.946Z,15.97
2023-05-15T13:55:34.806Z,15.74
2023-05-15T14:00:55.325Z,15.53
2023-05-15T14:06:15.935Z,15.65
2023-05-15T14:11:36.851Z,15.34
2023-05-15T14:16:57.421Z,15.20
2023-05-15T14:22:18.036Z,15.26
2023-05-15T14:27:38.720Z,15.17
2023-05-15T14:32:59.521Z,15.17
2023-05-15T14:38:19.933Z,14.82
2023-05-15T14:43:40.644Z,14.30
2023-05-15T14:49:00.938Z,13.77
2023-05-15T14:54:21.442Z,13.19
2023-05-15T14:59:41.887Z,12.93
2023-05-15T15:05:03.183Z,12.63
2023-05-15T15:10:23.735Z,12.51
2023-05-15T15:15:46.318Z,12.43
2023-05-15T15:21:07.675Z,12.64
2023-05-15T15:26:28.235Z,12.70
2023-05-15T15:31:48.672Z,12.82
2023-05-15T15:37:09.342Z,12.40
2023-05-15T15:42:30.307Z,11.95
2023-05-15T15:47:50.790Z,11.81
2023-05-15T15:53:11.113Z,11.61
2023-05-15T15:58:31.929Z,11.45
2023-05-15T16:03:52.465Z,11.43
2023-05-15T16:09:13.030Z,11.39
2023-05-15T16:14:33.531Z,11.22
2023-05-15T16:19:54.300Z,11.01
2023-05-15T16:25:15.385Z,10.99
2023-05-15T16:36:01.394Z,10.77
2023-05-15T16:41:21.874Z,10.88
2023-05-15T16:46:42.394Z,10.90
2023-05-15T16:52:02.881Z,10.82
2023-05-15T16:57:23.634Z,10.79
2023-05-15T17:02:44.468Z,10.87
2023-05-15T17:08:05.872Z,10.86
2023-05-15T17:13:27.749Z,10.80
2023-05-15T17:18:48.686Z,10.74
2023-05-15T17:24:09.108Z,10.71
2023-05-15T17:29:30.350Z,10.60
2023-05-15T17:34:51.486Z,10.61
2023-05-15T17:40:12.396Z,10.57
2023-05-15T17:45:33.036Z,10.58
2023-05-15T17:50:53.824Z,10.55
2023-05-15T17:56:15.631Z,10.48
2023-05-15T18:01:36.720Z,10.48
2023-05-15T18:06:57.261Z,10.42
2023-05-15T18:12:17.813Z,10.36
2023-05-15T18:17:38.551Z,10.40
2023-05-15T18:22:59.316Z,10.36
2023-05-15T18:28:20.261Z,10.25
2023-05-15T18:33:44.950Z,10.07
2023-05-15T18:39:05.814Z,10.09
2023-05-15T18:44:26.752Z,10.08
2023-05-15T18:49:47.349Z,10.03
2023-05-15T18:55:12.100Z,9.96
2023-05-15T19:05:56.922Z,9.87
2023-05-15T19:11:17.707Z,9.87
2023-05-15T19:16:38.055Z,9.93
2023-05-15T19:21:58.818Z,9.92
2023-05-15T19:27:19.156Z,9.93
2023-05-15T19:32:40.132Z,9.95
2023-05-15T19:38:00.723Z,9.92
2023-05-15T19:43:21.341Z,9.92
2023-05-15T19:48:42.135Z,9.94
2023-05-15T19:54:06.236Z,9.92
2023-05-15T19:59:26.838Z,9.91
2023-05-15T20:04:47.417Z,9.92
2023-05-15T20:10:09.060Z,9.95
2023-05-15T20:15:31.542Z,9.99
2023-05-15T20:20:53.050Z,10.00
2023-05-15T20:26:13.634Z,9.96
2023-05-15T20:31:33.865Z,9.98
2023-05-15T20:36:54.899Z,10.00
2023-05-15T20:42:15.696Z,9.99
2023-05-15T20:47:36.404Z,9.97
2023-05-15T20:52:57.130Z,9.98
2023-05-15T20:58:17.995Z,10.01
2023-05-15T21:03:38.829Z,10.05
2023-05-15T21:08:59.756Z,10.03
2023-05-15T21:14:20.370Z,9.93
2023-05-15T21:19:40.766Z,9.78
2023-05-15T21:25:01.598Z,9.69
2023-05-15T21:30:22.109Z,9.64
2023-05-15T21:35:44.418Z,9.60
2023-05-15T21:41:05.333Z,9.61
2023-05-15T21:46:26.045Z,9.61
2023-05-15T21:51:46.684Z,9.55
2023-05-15T21:57:07.379Z,9.55
2023-05-15T22:02:28.152Z,9.56
2023-05-15T22:07:49.213Z,9.55
2023-05-15T22:13:09.924Z,9.54
2023-05-15T22:18:31.554Z,9.51
2023-05-15T22:23:52.395Z,9.54
2023-05-15T22:29:13.199Z,9.52
2023-05-15T22:34:33.942Z,9.49
2023-05-15T22:39:54.666Z,9.51
2023-05-15T22:45:17.292Z,9.55
2023-05-15T22:50:39.248Z,9.55
2023-05-15T22:55:59.907Z,9.53
2023-05-15T23:01:20.742Z,9.51
2023-05-15T23:06:41.464Z,9.52
2023-05-15T23:12:03.585Z,9.56
2023-05-15T23:17:26.385Z,9.53
2023-05-15T23:22:47.517Z,9.48
2023-05-15T23:28:08.302Z,9.44
2023-05-15T23:33:29.054Z,9.40
2023-05-15T23:38:49.262Z,9.39
2023-05-15T23:44:09.929Z,9.36
2023-05-15T23:49:32.782Z,9.31
2023-05-15T23:54:53.462Z,9.27
